sensor_id;sensor_type;location;lat;lon;timestamp;temperature;humidity
19060;DHT22;9663;48.996;8.334;2023-07-13T00:01:58;21.70;47.40
19060;DHT22;9663;48.996;8.334;2023-07-13T00:04:24;21.70;47.50
19060;DHT22;9663;48.996;8.334;2023-07-13T00:06:51;21.70;47.50
19060;DHT22;9663;48.996;8.334;2023-07-13T00:09:18;21.70;47.60
19060;DHT22;9663;48.996;8.334;2023-07-13T00:11:45;21.60;47.70
19060;DHT22;9663;48.996;8.334;2023-07-13T00:14:15;21.60;47.70
19060;DHT22;9663;48.996;8.334;2023-07-13T00:16:41;21.60;47.80
19060;DHT22;9663;48.996;8.334;2023-07-13T00:19:10;21.60;47.90
19060;DHT22;9663;48.996;8.334;2023-07-13T00:21:37;21.60;48.00
19060;DHT22;9663;48.996;8.334;2023-07-13T00:24:04;21.50;48.00
19060;DHT22;9663;48.996;8.334;2023-07-13T00:26:30;21.50;48.10
19060;DHT22;9663;48.996;8.334;2023-07-13T00:28:57;21.50;48.90
19060;DHT22;9663;48.996;8.334;2023-07-13T00:31:24;21.50;48.30
19060;DHT22;9663;48.996;8.334;2023-07-13T00:33:50;21.50;48.40
19060;DHT22;9663;48.996;8.334;2023-07-13T00:36:17;21.40;48.40
19060;DHT22;9663;48.996;8.334;2023-07-13T00:38:42;21.40;48.40
19060;DHT22;9663;48.996;8.334;2023-07-13T00:41:09;21.40;48.50
19060;DHT22;9663;48.996;8.334;2023-07-13T00:43:35;21.30;48.50
19060;DHT22;9663;48.996;8.334;2023-07-13T00:46:12;21.30;48.50
19060;DHT22;9663;48.996;8.334;2023-07-13T00:48:45;21.30;48.70
19060;DHT22;9663;48.996;8.334;2023-07-13T00:51:14;21.20;48.70
19060;DHT22;9663;48.996;8.334;2023-07-13T00:53:42;21.20;48.80
19060;DHT22;9663;48.996;8.334;2023-07-13T00:56:08;21.10;48.80
19060;DHT22;9663;48.996;8.334;2023-07-13T00:58:35;21.10;48.90
19060;DHT22;9663;48.996;8.334;2023-07-13T01:01:01;21.00;49.00
19060;DHT22;9663;48.996;8.334;2023-07-13T01:03:27;20.90;49.00
19060;DHT22;9663;48.996;8.334;2023-07-13T01:05:53;20.90;49.20
19060;DHT22;9663;48.996;8.334;2023-07-13T01:08:20;20.80;49.30
19060;DHT22;9663;48.996;8.334;2023-07-13T01:10:54;20.80;49.40
19060;DHT22;9663;48.996;8.334;2023-07-13T01:13:21;20.80;49.80
19060;DHT22;9663;48.996;8.334;2023-07-13T01:15:49;20.80;50.10
19060;DHT22;9663;48.996;8.334;2023-07-13T01:18:22;20.70;49.60
19060;DHT22;9663;48.996;8.334;2023-07-13T01:21:00;20.70;49.90
19060;DHT22;9663;48.996;8.334;2023-07-13T01:23:29;20.70;50.10
19060;DHT22;9663;48.996;8.334;2023-07-13T01:25:57;20.70;49.80
19060;DHT22;9663;48.996;8.334;2023-07-13T01:28:25;20.60;49.80
19060;DHT22;9663;48.996;8.334;2023-07-13T01:30:53;20.60;50.50
19060;DHT22;9663;48.996;8.334;2023-07-13T01:33:20;20.50;49.90
19060;DHT22;9663;48.996;8.334;2023-07-13T01:35:46;20.50;49.90
19060;DHT22;9663;48.996;8.334;2023-07-13T01:38:15;20.40;50.00
19060;DHT22;9663;48.996;8.334;2023-07-13T01:40:43;20.30;50.10
19060;DHT22;9663;48.996;8.334;2023-07-13T01:43:09;20.30;50.20
19060;DHT22;9663;48.996;8.334;2023-07-13T01:45:35;20.20;50.20
19060;DHT22;9663;48.996;8.334;2023-07-13T01:48:01;20.20;50.40
19060;DHT22;9663;48.996;8.334;2023-07-13T01:50:28;20.10;50.40
19060;DHT22;9663;48.996;8.334;2023-07-13T01:52:54;20.10;50.50
19060;DHT22;9663;48.996;8.334;2023-07-13T01:55:21;20.00;50.60
19060;DHT22;9663;48.996;8.334;2023-07-13T01:57:47;20.00;50.80
19060;DHT22;9663;48.996;8.334;2023-07-13T02:00:14;19.90;50.80
19060;DHT22;9663;48.996;8.334;2023-07-13T02:02:40;19.80;51.00
19060;DHT22;9663;48.996;8.334;2023-07-13T02:05:07;19.80;50.90
19060;DHT22;9663;48.996;8.334;2023-07-13T02:07:33;19.70;51.00
19060;DHT22;9663;48.996;8.334;2023-07-13T02:09:58;19.70;51.00
19060;DHT22;9663;48.996;8.334;2023-07-13T02:12:24;19.60;51.20
19060;DHT22;9663;48.996;8.334;2023-07-13T02:14:50;19.60;51.20
19060;DHT22;9663;48.996;8.334;2023-07-13T02:17:15;19.50;51.40
19060;DHT22;9663;48.996;8.334;2023-07-13T02:19:41;19.50;51.40
19060;DHT22;9663;48.996;8.334;2023-07-13T02:22:07;19.40;51.50
19060;DHT22;9663;48.996;8.334;2023-07-13T02:24:33;19.40;51.70
19060;DHT22;9663;48.996;8.334;2023-07-13T02:26:58;19.30;51.70
19060;DHT22;9663;48.996;8.334;2023-07-13T02:29:24;19.30;51.80
19060;DHT22;9663;48.996;8.334;2023-07-13T02:31:50;19.20;51.90
19060;DHT22;9663;48.996;8.334;2023-07-13T02:34:16;19.20;52.00
19060;DHT22;9663;48.996;8.334;2023-07-13T02:36:42;19.10;52.20
19060;DHT22;9663;48.996;8.334;2023-07-13T02:39:07;19.10;52.20
19060;DHT22;9663;48.996;8.334;2023-07-13T02:41:34;19.00;52.30
19060;DHT22;9663;48.996;8.334;2023-07-13T02:44:00;19.00;52.40
19060;DHT22;9663;48.996;8.334;2023-07-13T02:46:36;19.00;52.40
19060;DHT22;9663;48.996;8.334;2023-07-13T02:49:03;18.90;52.90
19060;DHT22;9663;48.996;8.334;2023-07-13T02:51:29;18.90;52.50
19060;DHT22;9663;48.996;8.334;2023-07-13T02:53:55;18.80;52.60
19060;DHT22;9663;48.996;8.334;2023-07-13T02:56:25;18.80;52.80
19060;DHT22;9663;48.996;8.334;2023-07-13T02:58:53;18.80;53.10
19060;DHT22;9663;48.996;8.334;2023-07-13T03:01:20;18.80;53.00
19060;DHT22;9663;48.996;8.334;2023-07-13T03:03:48;18.80;53.10
19060;DHT22;9663;48.996;8.334;2023-07-13T03:06:15;18.80;53.10
19060;DHT22;9663;48.996;8.334;2023-07-13T03:08:42;18.80;53.20
19060;DHT22;9663;48.996;8.334;2023-07-13T03:11:12;18.80;53.20
19060;DHT22;9663;48.996;8.334;2023-07-13T03:13:43;18.80;53.40
19060;DHT22;9663;48.996;8.334;2023-07-13T03:16:10;18.80;53.40
19060;DHT22;9663;48.996;8.334;2023-07-13T03:18:36;18.80;53.40
19060;DHT22;9663;48.996;8.334;2023-07-13T03:21:03;18.80;53.40
19060;DHT22;9663;48.996;8.334;2023-07-13T03:23:30;18.80;53.50
19060;DHT22;9663;48.996;8.334;2023-07-13T03:26:11;18.80;53.60
19060;DHT22;9663;48.996;8.334;2023-07-13T03:28:43;18.80;54.40
19060;DHT22;9663;48.996;8.334;2023-07-13T03:31:16;18.80;53.60
19060;DHT22;9663;48.996;8.334;2023-07-13T03:33:44;18.80;53.80
19060;DHT22;9663;48.996;8.334;2023-07-13T03:36:16;18.80;53.70
19060;DHT22;9663;48.996;8.334;2023-07-13T03:38:48;18.70;53.90
19060;DHT22;9663;48.996;8.334;2023-07-13T03:41:16;18.70;53.70
19060;DHT22;9663;48.996;8.334;2023-07-13T03:43:42;18.70;53.80
19060;DHT22;9663;48.996;8.334;2023-07-13T03:46:09;18.60;53.80
19060;DHT22;9663;48.996;8.334;2023-07-13T03:48:35;18.60;53.90
19060;DHT22;9663;48.996;8.334;2023-07-13T03:51:01;18.60;54.00
19060;DHT22;9663;48.996;8.334;2023-07-13T03:53:27;18.60;54.10
19060;DHT22;9663;48.996;8.334;2023-07-13T03:55:53;18.60;54.20
19060;DHT22;9663;48.996;8.334;2023-07-13T03:58:30;18.60;54.30
19060;DHT22;9663;48.996;8.334;2023-07-13T04:00:59;18.60;55.10
19060;DHT22;9663;48.996;8.334;2023-07-13T04:03:26;18.60;54.50
19060;DHT22;9663;48.996;8.334;2023-07-13T04:05:55;18.60;54.40
19060;DHT22;9663;48.996;8.334;2023-07-13T04:08:28;18.70;54.50
19060;DHT22;9663;48.996;8.334;2023-07-13T04:10:56;18.70;54.50
19060;DHT22;9663;48.996;8.334;2023-07-13T04:13:23;18.70;54.50
19060;DHT22;9663;48.996;8.334;2023-07-13T04:15:50;18.70;54.60
19060;DHT22;9663;48.996;8.334;2023-07-13T04:18:16;18.70;54.60
19060;DHT22;9663;48.996;8.334;2023-07-13T04:20:42;18.70;54.60
19060;DHT22;9663;48.996;8.334;2023-07-13T04:23:07;18.60;54.60
19060;DHT22;9663;48.996;8.334;2023-07-13T04:25:33;18.70;54.70
19060;DHT22;9663;48.996;8.334;2023-07-13T04:27:59;18.60;54.80
19060;DHT22;9663;48.996;8.334;2023-07-13T04:30:25;18.60;54.80
19060;DHT22;9663;48.996;8.334;2023-07-13T04:32:52;18.70;55.10
19060;DHT22;9663;48.996;8.334;2023-07-13T04:35:21;18.70;55.20
19060;DHT22;9663;48.996;8.334;2023-07-13T04:37:50;18.80;55.40
19060;DHT22;9663;48.996;8.334;2023-07-13T04:40:20;18.80;55.50
19060;DHT22;9663;48.996;8.334;2023-07-13T04:42:46;18.90;56.20
19060;DHT22;9663;48.996;8.334;2023-07-13T04:45:13;18.90;55.40
19060;DHT22;9663;48.996;8.334;2023-07-13T04:47:41;19.10;55.60
19060;DHT22;9663;48.996;8.334;2023-07-13T04:50:08;19.20;55.50
19060;DHT22;9663;48.996;8.334;2023-07-13T04:52:36;19.30;55.60
19060;DHT22;9663;48.996;8.334;2023-07-13T04:55:03;19.40;55.50
19060;DHT22;9663;48.996;8.334;2023-07-13T04:57:29;19.50;55.40
19060;DHT22;9663;48.996;8.334;2023-07-13T04:59:55;19.50;55.30
19060;DHT22;9663;48.996;8.334;2023-07-13T05:02:21;19.60;55.30
19060;DHT22;9663;48.996;8.334;2023-07-13T05:04:47;19.60;55.30
19060;DHT22;9663;48.996;8.334;2023-07-13T05:07:13;19.70;55.20
19060;DHT22;9663;48.996;8.334;2023-07-13T05:09:39;19.70;55.20
19060;DHT22;9663;48.996;8.334;2023-07-13T05:12:07;19.70;55.20
19060;DHT22;9663;48.996;8.334;2023-07-13T05:14:36;19.80;55.30
19060;DHT22;9663;48.996;8.334;2023-07-13T05:17:02;19.80;55.20
19060;DHT22;9663;48.996;8.334;2023-07-13T05:19:29;19.90;55.20
19060;DHT22;9663;48.996;8.334;2023-07-13T05:21:55;20.00;55.20
19060;DHT22;9663;48.996;8.334;2023-07-13T05:24:21;20.00;55.20
19060;DHT22;9663;48.996;8.334;2023-07-13T05:26:47;20.00;55.20
19060;DHT22;9663;48.996;8.334;2023-07-13T05:29:13;20.00;55.20
19060;DHT22;9663;48.996;8.334;2023-07-13T05:31:38;20.10;55.20
19060;DHT22;9663;48.996;8.334;2023-07-13T05:34:04;20.10;55.10
19060;DHT22;9663;48.996;8.334;2023-07-13T05:36:30;20.10;55.20
19060;DHT22;9663;48.996;8.334;2023-07-13T05:38:55;20.10;55.30
19060;DHT22;9663;48.996;8.334;2023-07-13T05:41:21;20.20;55.30
19060;DHT22;9663;48.996;8.334;2023-07-13T05:43:47;20.30;55.40
19060;DHT22;9663;48.996;8.334;2023-07-13T05:46:13;20.40;55.20
19060;DHT22;9663;48.996;8.334;2023-07-13T05:48:38;20.40;55.20
19060;DHT22;9663;48.996;8.334;2023-07-13T05:51:04;20.50;55.20
19060;DHT22;9663;48.996;8.334;2023-07-13T05:53:30;20.50;55.20
19060;DHT22;9663;48.996;8.334;2023-07-13T05:55:56;20.60;55.10
19060;DHT22;9663;48.996;8.334;2023-07-13T05:58:22;20.70;55.20
19060;DHT22;9663;48.996;8.334;2023-07-13T06:00:48;20.80;55.10
19060;DHT22;9663;48.996;8.334;2023-07-13T06:03:14;20.90;55.10
19060;DHT22;9663;48.996;8.334;2023-07-13T06:05:41;20.90;55.00
19060;DHT22;9663;48.996;8.334;2023-07-13T06:08:07;21.00;54.90
19060;DHT22;9663;48.996;8.334;2023-07-13T06:10:34;21.20;54.90
19060;DHT22;9663;48.996;8.334;2023-07-13T06:13:01;21.30;54.80
19060;DHT22;9663;48.996;8.334;2023-07-13T06:15:28;21.40;54.70
19060;DHT22;9663;48.996;8.334;2023-07-13T06:17:54;21.50;54.60
19060;DHT22;9663;48.996;8.334;2023-07-13T06:20:19;21.70;54.60
19060;DHT22;9663;48.996;8.334;2023-07-13T06:22:45;21.70;54.30
19060;DHT22;9663;48.996;8.334;2023-07-13T06:25:11;21.80;54.10
19060;DHT22;9663;48.996;8.334;2023-07-13T06:27:37;21.90;54.00
19060;DHT22;9663;48.996;8.334;2023-07-13T06:30:02;21.90;53.80
19060;DHT22;9663;48.996;8.334;2023-07-13T06:32:28;22.00;53.80
19060;DHT22;9663;48.996;8.334;2023-07-13T06:34:54;22.00;53.90
19060;DHT22;9663;48.996;8.334;2023-07-13T06:37:20;22.00;53.80
19060;DHT22;9663;48.996;8.334;2023-07-13T06:39:45;22.10;53.80
19060;DHT22;9663;48.996;8.334;2023-07-13T06:42:11;22.20;53.80
19060;DHT22;9663;48.996;8.334;2023-07-13T06:44:37;22.20;53.60
19060;DHT22;9663;48.996;8.334;2023-07-13T06:47:03;22.30;53.50
19060;DHT22;9663;48.996;8.334;2023-07-13T06:49:28;22.30;53.60
19060;DHT22;9663;48.996;8.334;2023-07-13T06:51:54;22.40;53.40
19060;DHT22;9663;48.996;8.334;2023-07-13T06:54:20;22.50;53.40
19060;DHT22;9663;48.996;8.334;2023-07-13T06:56:46;22.50;53.30
19060;DHT22;9663;48.996;8.334;2023-07-13T06:59:12;22.60;53.20
19060;DHT22;9663;48.996;8.334;2023-07-13T07:01:37;22.70;53.00
19060;DHT22;9663;48.996;8.334;2023-07-13T07:04:04;22.80;52.90
19060;DHT22;9663;48.996;8.334;2023-07-13T07:06:29;22.90;52.90
19060;DHT22;9663;48.996;8.334;2023-07-13T07:08:55;23.00;52.80
19060;DHT22;9663;48.996;8.334;2023-07-13T07:11:25;23.00;52.60
19060;DHT22;9663;48.996;8.334;2023-07-13T07:13:52;23.10;52.50
19060;DHT22;9663;48.996;8.334;2023-07-13T07:16:19;23.20;52.50
19060;DHT22;9663;48.996;8.334;2023-07-13T07:18:46;23.30;52.60
19060;DHT22;9663;48.996;8.334;2023-07-13T07:21:13;23.40;52.50
19060;DHT22;9663;48.996;8.334;2023-07-13T07:23:39;23.40;52.30
19060;DHT22;9663;48.996;8.334;2023-07-13T07:26:06;23.60;52.30
19060;DHT22;9663;48.996;8.334;2023-07-13T07:28:34;23.70;52.30
19060;DHT22;9663;48.996;8.334;2023-07-13T07:30:59;23.80;52.20
19060;DHT22;9663;48.996;8.334;2023-07-13T07:33:25;23.90;52.00
19060;DHT22;9663;48.996;8.334;2023-07-13T07:35:52;24.00;51.70
19060;DHT22;9663;48.996;8.334;2023-07-13T07:38:17;24.10;51.60
19060;DHT22;9663;48.996;8.334;2023-07-13T07:40:43;24.20;51.50
19060;DHT22;9663;48.996;8.334;2023-07-13T07:43:11;24.30;52.10
19060;DHT22;9663;48.996;8.334;2023-07-13T07:45:38;24.40;51.20
19060;DHT22;9663;48.996;8.334;2023-07-13T07:48:05;24.50;51.20
19060;DHT22;9663;48.996;8.334;2023-07-13T07:50:32;24.50;51.00
19060;DHT22;9663;48.996;8.334;2023-07-13T07:52:58;24.60;50.90
19060;DHT22;9663;48.996;8.334;2023-07-13T07:55:25;24.70;50.70
19060;DHT22;9663;48.996;8.334;2023-07-13T07:57:54;24.80;50.60
19060;DHT22;9663;48.996;8.334;2023-07-13T08:00:21;24.90;50.60
19060;DHT22;9663;48.996;8.334;2023-07-13T08:02:47;25.00;50.50
19060;DHT22;9663;48.996;8.334;2023-07-13T08:05:13;25.10;50.20
19060;DHT22;9663;48.996;8.334;2023-07-13T08:07:40;25.20;50.10
19060;DHT22;9663;48.996;8.334;2023-07-13T08:10:06;25.30;49.80
19060;DHT22;9663;48.996;8.334;2023-07-13T08:12:36;25.30;49.50
19060;DHT22;9663;48.996;8.334;2023-07-13T08:15:03;25.40;49.20
19060;DHT22;9663;48.996;8.334;2023-07-13T08:17:31;25.50;49.40
19060;DHT22;9663;48.996;8.334;2023-07-13T08:19:57;25.60;49.30
19060;DHT22;9663;48.996;8.334;2023-07-13T08:22:22;25.80;49.00
19060;DHT22;9663;48.996;8.334;2023-07-13T08:24:48;25.90;48.40
19060;DHT22;9663;48.996;8.334;2023-07-13T08:27:21;26.00;48.10
19060;DHT22;9663;48.996;8.334;2023-07-13T08:29:48;26.10;47.50
19060;DHT22;9663;48.996;8.334;2023-07-13T08:32:14;26.20;47.60
19060;DHT22;9663;48.996;8.334;2023-07-13T08:34:40;26.30;47.30
19060;DHT22;9663;48.996;8.334;2023-07-13T08:37:06;26.30;47.00
19060;DHT22;9663;48.996;8.334;2023-07-13T08:39:33;26.30;46.70
19060;DHT22;9663;48.996;8.334;2023-07-13T08:42:04;26.40;46.90
19060;DHT22;9663;48.996;8.334;2023-07-13T08:47:35;26.50;46.70
19060;DHT22;9663;48.996;8.334;2023-07-13T08:50:05;26.60;46.20
19060;DHT22;9663;48.996;8.334;2023-07-13T08:52:39;26.70;46.50
19060;DHT22;9663;48.996;8.334;2023-07-13T08:55:16;26.80;46.30
19060;DHT22;9663;48.996;8.334;2023-07-13T08:57:51;26.90;45.50
19060;DHT22;9663;48.996;8.334;2023-07-13T09:00:43;27.00;45.90
19060;DHT22;9663;48.996;8.334;2023-07-13T09:03:20;27.20;45.70
19060;DHT22;9663;48.996;8.334;2023-07-13T09:05:59;27.30;45.60
19060;DHT22;9663;48.996;8.334;2023-07-13T09:08:55;27.40;44.40
19060;DHT22;9663;48.996;8.334;2023-07-13T09:11:43;27.50;43.30
19060;DHT22;9663;48.996;8.334;2023-07-13T09:20:04;27.60;43.90
19060;DHT22;9663;48.996;8.334;2023-07-13T09:22:37;27.60;43.50
19060;DHT22;9663;48.996;8.334;2023-07-13T09:28:20;27.60;43.70
19060;DHT22;9663;48.996;8.334;2023-07-13T09:33:28;27.70;43.20
19060;DHT22;9663;48.996;8.334;2023-07-13T09:35:57;27.80;43.70
19060;DHT22;9663;48.996;8.334;2023-07-13T09:38:25;27.90;43.60
19060;DHT22;9663;48.996;8.334;2023-07-13T09:44:08;28.00;42.70
19060;DHT22;9663;48.996;8.334;2023-07-13T09:46:47;28.10;42.30
19060;DHT22;9663;48.996;8.334;2023-07-13T09:49:18;28.20;43.10
19060;DHT22;9663;48.996;8.334;2023-07-13T09:51:44;28.40;43.20
19060;DHT22;9663;48.996;8.334;2023-07-13T09:54:19;28.50;43.20
19060;DHT22;9663;48.996;8.334;2023-07-13T09:56:46;28.60;42.00
19060;DHT22;9663;48.996;8.334;2023-07-13T09:59:23;28.70;42.50
19060;DHT22;9663;48.996;8.334;2023-07-13T10:01:52;28.80;41.40
19060;DHT22;9663;48.996;8.334;2023-07-13T10:04:19;28.90;41.60
19060;DHT22;9663;48.996;8.334;2023-07-13T10:07:07;28.90;41.60
19060;DHT22;9663;48.996;8.334;2023-07-13T10:09:35;28.90;40.70
19060;DHT22;9663;48.996;8.334;2023-07-13T10:12:01;28.90;41.70
19060;DHT22;9663;48.996;8.334;2023-07-13T10:14:27;28.90;41.60
19060;DHT22;9663;48.996;8.334;2023-07-13T10:16:59;28.90;41.40
19060;DHT22;9663;48.996;8.334;2023-07-13T10:19:31;28.90;41.40
19060;DHT22;9663;48.996;8.334;2023-07-13T10:22:03;28.90;41.00
19060;DHT22;9663;48.996;8.334;2023-07-13T10:24:41;28.90;41.10
19060;DHT22;9663;48.996;8.334;2023-07-13T10:27:27;28.90;41.00
19060;DHT22;9663;48.996;8.334;2023-07-13T10:30:33;29.00;40.40
19060;DHT22;9663;48.996;8.334;2023-07-13T10:33:00;29.00;41.10
19060;DHT22;9663;48.996;8.334;2023-07-13T10:35:29;29.10;40.90
19060;DHT22;9663;48.996;8.334;2023-07-13T10:38:10;29.20;41.10
19060;DHT22;9663;48.996;8.334;2023-07-13T10:43:53;29.50;40.90
19060;DHT22;9663;48.996;8.334;2023-07-13T10:46:22;29.60;40.60
19060;DHT22;9663;48.996;8.334;2023-07-13T10:48:57;29.70;40.60
19060;DHT22;9663;48.996;8.334;2023-07-13T10:51:26;29.80;40.10
19060;DHT22;9663;48.996;8.334;2023-07-13T10:54:26;30.00;40.50
19060;DHT22;9663;48.996;8.334;2023-07-13T10:57:17;30.10;39.70
19060;DHT22;9663;48.996;8.334;2023-07-13T11:00:17;30.30;39.10
19060;DHT22;9663;48.996;8.334;2023-07-13T11:02:56;30.50;38.50
19060;DHT22;9663;48.996;8.334;2023-07-13T11:05:32;30.50;38.10
19060;DHT22;9663;48.996;8.334;2023-07-13T11:08:20;30.60;38.60
19060;DHT22;9663;48.996;8.334;2023-07-13T11:10:58;30.70;37.30
19060;DHT22;9663;48.996;8.334;2023-07-13T11:16:37;30.60;37.60
19060;DHT22;9663;48.996;8.334;2023-07-13T11:24:58;30.60;37.30
19060;DHT22;9663;48.996;8.334;2023-07-13T11:27:50;30.70;37.50
19060;DHT22;9663;48.996;8.334;2023-07-13T11:36:16;31.00;35.90
19060;DHT22;9663;48.996;8.334;2023-07-13T11:39:04;31.40;37.20
19060;DHT22;9663;48.996;8.334;2023-07-13T11:41:44;32.00;37.00
19060;DHT22;9663;48.996;8.334;2023-07-13T11:44:23;32.60;38.00
19060;DHT22;9663;48.996;8.334;2023-07-13T11:46:52;33.10;36.80
19060;DHT22;9663;48.996;8.334;2023-07-13T11:49:25;33.30;36.60
19060;DHT22;9663;48.996;8.334;2023-07-13T11:51:54;33.60;36.70
19060;DHT22;9663;48.996;8.334;2023-07-13T11:54:34;33.80;36.20
19060;DHT22;9663;48.996;8.334;2023-07-13T11:57:33;34.00;34.50
19060;DHT22;9663;48.996;8.334;2023-07-13T12:00:13;34.10;34.10
19060;DHT22;9663;48.996;8.334;2023-07-13T12:02:45;34.20;34.30
19060;DHT22;9663;48.996;8.334;2023-07-13T12:05:14;34.40;33.90
19060;DHT22;9663;48.996;8.334;2023-07-13T12:07:44;34.60;34.10
19060;DHT22;9663;48.996;8.334;2023-07-13T12:10:29;34.80;33.80
19060;DHT22;9663;48.996;8.334;2023-07-13T12:13:04;35.10;32.00
19060;DHT22;9663;48.996;8.334;2023-07-13T12:15:39;35.30;32.90
19060;DHT22;9663;48.996;8.334;2023-07-13T12:18:17;35.50;32.40
19060;DHT22;9663;48.996;8.334;2023-07-13T12:20:46;35.80;32.10
19060;DHT22;9663;48.996;8.334;2023-07-13T12:23:33;36.10;32.80
19060;DHT22;9663;48.996;8.334;2023-07-13T12:26:06;36.50;30.50
19060;DHT22;9663;48.996;8.334;2023-07-13T12:31:34;37.10;30.30
19060;DHT22;9663;48.996;8.334;2023-07-13T12:34:14;37.40;29.30
19060;DHT22;9663;48.996;8.334;2023-07-13T12:39:23;37.70;29.20
19060;DHT22;9663;48.996;8.334;2023-07-13T12:41:52;37.80;29.90
19060;DHT22;9663;48.996;8.334;2023-07-13T12:44:28;37.90;29.20
19060;DHT22;9663;48.996;8.334;2023-07-13T12:47:03;37.90;28.00
19060;DHT22;9663;48.996;8.334;2023-07-13T12:49:33;37.70;27.50
19060;DHT22;9663;48.996;8.334;2023-07-13T12:52:09;37.40;28.10
19060;DHT22;9663;48.996;8.334;2023-07-13T12:54:42;37.40;28.40
19060;DHT22;9663;48.996;8.334;2023-07-13T12:57:18;37.50;28.50
19060;DHT22;9663;48.996;8.334;2023-07-13T12:59:44;37.60;28.20
19060;DHT22;9663;48.996;8.334;2023-07-13T13:02:33;37.50;27.90
19060;DHT22;9663;48.996;8.334;2023-07-13T13:05:00;37.20;26.70
19060;DHT22;9663;48.996;8.334;2023-07-13T13:07:29;37.00;27.60
19060;DHT22;9663;48.996;8.334;2023-07-13T13:09:55;36.70;28.10
19060;DHT22;9663;48.996;8.334;2023-07-13T13:12:22;36.20;27.30
19060;DHT22;9663;48.996;8.334;2023-07-13T13:14:51;35.90;27.70
19060;DHT22;9663;48.996;8.334;2023-07-13T13:17:24;35.70;28.50
19060;DHT22;9663;48.996;8.334;2023-07-13T13:19:56;36.00;28.60
19060;DHT22;9663;48.996;8.334;2023-07-13T13:22:22;36.50;28.90
19060;DHT22;9663;48.996;8.334;2023-07-13T13:24:48;37.10;28.80
19060;DHT22;9663;48.996;8.334;2023-07-13T13:27:20;37.60;28.50
19060;DHT22;9663;48.996;8.334;2023-07-13T13:29:49;38.00;27.40
19060;DHT22;9663;48.996;8.334;2023-07-13T13:32:17;38.30;27.30
19060;DHT22;9663;48.996;8.334;2023-07-13T13:34:44;38.50;26.70
19060;DHT22;9663;48.996;8.334;2023-07-13T13:37:28;38.60;26.60
19060;DHT22;9663;48.996;8.334;2023-07-13T13:39:54;38.80;25.40
19060;DHT22;9663;48.996;8.334;2023-07-13T13:42:21;38.90;25.50
19060;DHT22;9663;48.996;8.334;2023-07-13T13:44:50;38.90;25.50
19060;DHT22;9663;48.996;8.334;2023-07-13T13:47:29;38.80;24.70
19060;DHT22;9663;48.996;8.334;2023-07-13T13:49:57;38.60;24.20
19060;DHT22;9663;48.996;8.334;2023-07-13T13:52:26;38.50;24.90
19060;DHT22;9663;48.996;8.334;2023-07-13T13:54:52;38.30;24.10
19060;DHT22;9663;48.996;8.334;2023-07-13T13:57:24;38.20;24.50
19060;DHT22;9663;48.996;8.334;2023-07-13T13:59:53;38.00;24.70
19060;DHT22;9663;48.996;8.334;2023-07-13T14:02:29;37.80;24.60
19060;DHT22;9663;48.996;8.334;2023-07-13T14:04:59;37.60;24.20
19060;DHT22;9663;48.996;8.334;2023-07-13T14:07:27;37.40;24.10
19060;DHT22;9663;48.996;8.334;2023-07-13T14:09:57;37.10;24.60
19060;DHT22;9663;48.996;8.334;2023-07-13T14:12:24;36.90;24.60
19060;DHT22;9663;48.996;8.334;2023-07-13T14:14:54;36.80;25.20
19060;DHT22;9663;48.996;8.334;2023-07-13T14:17:23;36.60;24.90
19060;DHT22;9663;48.996;8.334;2023-07-13T14:19:52;36.40;24.50
19060;DHT22;9663;48.996;8.334;2023-07-13T14:22:23;36.00;24.70
19060;DHT22;9663;48.996;8.334;2023-07-13T14:24:52;35.70;24.70
19060;DHT22;9663;48.996;8.334;2023-07-13T14:27:19;35.50;25.10
19060;DHT22;9663;48.996;8.334;2023-07-13T14:29:45;35.40;25.50
19060;DHT22;9663;48.996;8.334;2023-07-13T14:32:12;35.50;25.90
19060;DHT22;9663;48.996;8.334;2023-07-13T14:34:38;35.80;25.80
19060;DHT22;9663;48.996;8.334;2023-07-13T14:37:05;36.00;25.30
19060;DHT22;9663;48.996;8.334;2023-07-13T14:39:35;36.10;25.10
19060;DHT22;9663;48.996;8.334;2023-07-13T14:42:01;36.10;25.30
19060;DHT22;9663;48.996;8.334;2023-07-13T14:44:29;36.20;25.30
19060;DHT22;9663;48.996;8.334;2023-07-13T14:46:58;36.40;25.00
19060;DHT22;9663;48.996;8.334;2023-07-13T14:49:32;36.50;25.20
19060;DHT22;9663;48.996;8.334;2023-07-13T14:52:05;36.80;25.40
19060;DHT22;9663;48.996;8.334;2023-07-13T14:54:37;36.90;25.50
19060;DHT22;9663;48.996;8.334;2023-07-13T14:57:19;36.80;24.40
19060;DHT22;9663;48.996;8.334;2023-07-13T14:59:46;36.20;23.50
19060;DHT22;9663;48.996;8.334;2023-07-13T15:02:28;36.30;24.80
19060;DHT22;9663;48.996;8.334;2023-07-13T15:04:57;36.70;25.00
19060;DHT22;9663;48.996;8.334;2023-07-13T15:07:23;37.30;25.40
19060;DHT22;9663;48.996;8.334;2023-07-13T15:09:49;37.90;24.70
19060;DHT22;9663;48.996;8.334;2023-07-13T15:12:18;38.30;24.50
19060;DHT22;9663;48.996;8.334;2023-07-13T15:14:45;38.50;23.60
19060;DHT22;9663;48.996;8.334;2023-07-13T15:17:36;38.60;22.80
19060;DHT22;9663;48.996;8.334;2023-07-13T15:20:17;38.80;22.70
19060;DHT22;9663;48.996;8.334;2023-07-13T15:22:50;39.10;22.80
19060;DHT22;9663;48.996;8.334;2023-07-13T15:25:19;39.40;23.50
19060;DHT22;9663;48.996;8.334;2023-07-13T15:27:50;39.80;23.30
19060;DHT22;9663;48.996;8.334;2023-07-13T15:30:16;40.30;23.30
19060;DHT22;9663;48.996;8.334;2023-07-13T15:32:43;40.70;23.20
19060;DHT22;9663;48.996;8.334;2023-07-13T15:35:21;40.90;22.60
19060;DHT22;9663;48.996;8.334;2023-07-13T15:37:49;41.00;22.20
19060;DHT22;9663;48.996;8.334;2023-07-13T15:40:15;41.10;22.70
19060;DHT22;9663;48.996;8.334;2023-07-13T15:42:43;41.40;22.50
19060;DHT22;9663;48.996;8.334;2023-07-13T15:45:18;41.70;22.30
19060;DHT22;9663;48.996;8.334;2023-07-13T15:47:50;41.90;21.40
19060;DHT22;9663;48.996;8.334;2023-07-13T15:50:22;42.20;22.00
19060;DHT22;9663;48.996;8.334;2023-07-13T15:52:54;42.40;21.30
19060;DHT22;9663;48.996;8.334;2023-07-13T15:55:23;42.50;21.40
19060;DHT22;9663;48.996;8.334;2023-07-13T15:57:51;42.70;21.50
19060;DHT22;9663;48.996;8.334;2023-07-13T16:00:27;42.80;21.30
19060;DHT22;9663;48.996;8.334;2023-07-13T16:02:53;42.80;20.70
19060;DHT22;9663;48.996;8.334;2023-07-13T16:05:20;42.80;20.90
19060;DHT22;9663;48.996;8.334;2023-07-13T16:07:50;42.60;20.80
19060;DHT22;9663;48.996;8.334;2023-07-13T16:10:31;42.60;20.70
19060;DHT22;9663;48.996;8.334;2023-07-13T16:12:59;42.50;19.90
19060;DHT22;9663;48.996;8.334;2023-07-13T16:15:26;42.40;20.30
19060;DHT22;9663;48.996;8.334;2023-07-13T16:17:51;42.20;20.20
19060;DHT22;9663;48.996;8.334;2023-07-13T16:20:18;42.00;20.10
19060;DHT22;9663;48.996;8.334;2023-07-13T16:22:48;41.80;20.10
19060;DHT22;9663;48.996;8.334;2023-07-13T16:27:48;41.20;19.90
19060;DHT22;9663;48.996;8.334;2023-07-13T16:30:18;40.60;19.30
19060;DHT22;9663;48.996;8.334;2023-07-13T16:32:51;39.80;19.50
19060;DHT22;9663;48.996;8.334;2023-07-13T16:35:25;38.90;19.60
19060;DHT22;9663;48.996;8.334;2023-07-13T16:37:53;38.20;20.00
19060;DHT22;9663;48.996;8.334;2023-07-13T16:40:31;37.80;20.80
19060;DHT22;9663;48.996;8.334;2023-07-13T16:42:59;37.80;21.40
19060;DHT22;9663;48.996;8.334;2023-07-13T16:45:28;38.10;21.90